Appling, GA

11:53 AM EDT on May 05, 2015 (GMT -0400)
Morris Callaway Rd | | Change Station
CLOSE
Current Station
Personal Weather Station
Location: Appling, GA
Elevation: 456 ft
Nearby Weather Stations

Elev 456 ft 33.54 °N, 82.35 °W | Updated 5 minutes ago

Clear
Clear
84.2 °F
Feels Like 83 °F
N
3.2
Wind Variable Wind from NNW

Today
High -- | Low -- °F
--% Chance of Precip.
Yesterday
High -- | Low -- °F
Precip. -- in
6:37 AM 8:15 PM
Full, 98% visible
Pressure 30.39 in
Visibility 10.0 miles
Clouds Clear
Heat Index 83 °F
Dew Point 55 °F
Humidity 37%
Rainfall 0.00 in
Snow Depth Not available.
UV 10 out of 12
Pollen 7.90 out of 12
Air Quality Not available.
Flu Activity Sporadic
METAR KHQU 051535Z AUTO 11003KT 10SM CLR 25/14 A3039 RMK AO1 T02500137

More Conditions Fewer Conditions

Pressure 30.39 in
Visibility 10.0 miles
Clouds Clear
Heat Index 83 °F
Dew Point 55 °F
Humidity 37%
Rainfall 0.00 in
Snow Depth Not available.
UV 10 out of 12
Pollen 7.90 out of 12
Air Quality Not available.
Flu Activity Sporadic
METAR KHQU 051535Z AUTO 11003KT 10SM CLR 25/14 A3039 RMK AO1 T02500137

More Conditions Fewer Conditions

10-Day Weather Forecast

Almanac

Astronomy

May. 05, 2015 Rise Set
Actual Time
Civil Twilight
Nautical Twilight
Astronomical Twilight
Moon
Length of Visible Light
Length of Day
Tomorrow will be .
, % of the Moon is Illuminated

Today's Extremes

State Highs State Lows

Community

WunderPhotos

Upload Photos

1,818,922 photos uploaded!

WunderBlogs® & News

Nearby

Air Quality

  Air Quality AQ Index Pollutant
Not available.

Snow Depth

Station Depth Elevation

Earthquake Activity

City Distance Mag. Time & Date
Minimum magnitude displayed is 2.5.

Coastal Water Temperatures

Place Temperature

Stations

Nearby Weather Stations

Station Location Temp. Windchill Dew Point Humidity Wind Precip. Elev Updated Type